createdAt,value
2022-07-31T04:13:28.857Z,24.6
2022-07-31T04:15:43.706Z,24.8
2022-07-31T04:17:58.591Z,24.6
2022-07-31T04:20:13.547Z,24.9
2022-07-31T04:22:28.315Z,24.8
2022-07-31T04:24:43.188Z,24.8
2022-07-31T04:26:58.172Z,24.9
2022-07-31T04:29:12.727Z,24.8
2022-07-31T04:31:27.618Z,24.6
2022-07-31T04:33:47.109Z,24.6
2022-07-31T04:35:57.303Z,24.5
2022-07-31T04:38:17.446Z,24.7
2022-07-31T04:40:32.288Z,24.6
2022-07-31T04:42:48.282Z,24.6
2022-07-31T04:45:03.156Z,24.8
2022-07-31T04:47:19.550Z,24.9
2022-07-31T04:49:34.525Z,25.1
2022-07-31T04:51:49.308Z,25.1
2022-07-31T04:54:04.232Z,25.1
2022-07-31T04:56:18.996Z,24.8
2022-07-31T04:58:33.830Z,25.1
2022-07-31T05:01:02.826Z,25.1
2022-07-31T05:03:17.726Z,24.7
2022-07-31T05:05:32.469Z,24.9
2022-07-31T05:07:47.702Z,25.2
2022-07-31T05:10:02.313Z,25.1
2022-07-31T05:12:17.548Z,25.3
2022-07-31T05:14:32.423Z,25.4
2022-07-31T05:16:47.463Z,25.1
2022-07-31T05:19:02.378Z,25.3
2022-07-31T05:21:17.166Z,25.3
2022-07-31T05:23:35.439Z,25.3
2022-07-31T05:25:50.691Z,25.4
2022-07-31T05:28:08.862Z,25.4
2022-07-31T05:30:20.836Z,25.3
2022-07-31T05:32:35.052Z,25.3
2022-07-31T05:34:50.034Z,25.4
2022-07-31T05:37:05.011Z,25.4
2022-07-31T05:39:19.725Z,25.5
2022-07-31T05:41:34.543Z,25.5
2022-07-31T05:43:49.477Z,25.2
2022-07-31T05:46:04.247Z,25.6
2022-07-31T05:48:19.170Z,25.3
2022-07-31T05:50:33.993Z,25.4
2022-07-31T05:52:48.913Z,25.3
2022-07-31T05:55:21.038Z,25.3
2022-07-31T05:57:36.152Z,25.3
2022-07-31T05:59:50.918Z,25.4
2022-07-31T06:02:06.291Z,25.4
2022-07-31T06:04:23.670Z,25.6
2022-07-31T06:06:38.471Z,25.5
2022-07-31T06:08:53.312Z,25.4
2022-07-31T06:11:08.158Z,25.5
2022-07-31T06:13:22.978Z,25.5
2022-07-31T06:15:37.913Z,25.6
2022-07-31T06:17:52.815Z,25.6
2022-07-31T06:20:07.863Z,25.8
2022-07-31T06:22:22.517Z,25.6
2022-07-31T06:24:40.638Z,25.7
2022-07-31T06:26:54.628Z,25.6
2022-07-31T06:29:43.975Z,25.8
2022-07-31T06:31:59.203Z,25.9
2022-07-31T06:34:24.256Z,26.2
2022-07-31T06:36:39.126Z,26
2022-07-31T06:38:54.000Z,25.8
2022-07-31T06:41:26.885Z,26.2
2022-07-31T06:43:41.665Z,26
2022-07-31T06:46:08.947Z,26
2022-07-31T06:48:23.920Z,26.4
2022-07-31T06:50:38.758Z,26.4
2022-07-31T06:53:04.706Z,26.5
2022-07-31T06:55:19.551Z,26.3
2022-07-31T06:57:34.580Z,26.4
2022-07-31T06:59:57.852Z,26.5
2022-07-31T07:02:12.716Z,26.7
2022-07-31T07:04:56.134Z,26.6
2022-07-31T07:07:08.580Z,26.8
2022-07-31T07:09:23.318Z,26.8
2022-07-31T07:11:38.337Z,26.3
2022-07-31T07:13:53.035Z,27
2022-07-31T07:16:07.898Z,26.6
2022-07-31T07:18:22.779Z,26.7
2022-07-31T07:20:37.671Z,26.7
2022-07-31T07:22:52.518Z,26.8
2022-07-31T07:25:07.359Z,26.6
2022-07-31T07:27:22.280Z,26.9
2022-07-31T07:29:37.065Z,26.9
2022-07-31T07:31:51.899Z,26.9
2022-07-31T07:34:15.346Z,27.1
2022-07-31T07:36:30.196Z,27.1
2022-07-31T07:38:45.060Z,27.1
2022-07-31T07:40:59.968Z,27.1
2022-07-31T07:43:14.770Z,27.2
2022-07-31T07:45:29.556Z,27.1
2022-07-31T07:48:08.253Z,27.2
2022-07-31T07:50:26.854Z,26.8
2022-07-31T07:52:45.745Z,27.3
2022-07-31T07:55:00.563Z,27.2
2022-07-31T07:57:15.455Z,27.1
2022-07-31T07:59:30.239Z,27.4
2022-07-31T08:01:45.120Z,27.3
2022-07-31T08:04:51.760Z,27.8
2022-07-31T08:07:06.626Z,27.4
2022-07-31T08:09:21.654Z,26.6
2022-07-31T08:11:36.248Z,27.5
2022-07-31T08:13:51.395Z,27.4
2022-07-31T08:16:05.910Z,27.4
2022-07-31T08:18:20.788Z,27.3
2022-07-31T08:20:35.696Z,27.4
2022-07-31T08:22:50.547Z,27.3
2022-07-31T08:25:05.916Z,26.4
2022-07-31T08:27:21.469Z,27.2
2022-07-31T08:29:37.102Z,27.6
2022-07-31T08:31:49.890Z,27.2
2022-07-31T08:34:04.686Z,27.3
2022-07-31T08:36:19.641Z,27
2022-07-31T08:39:21.095Z,26.7
2022-07-31T08:41:34.816Z,27.6
2022-07-31T08:44:25.759Z,27.4
2022-07-31T08:46:36.385Z,27.2
2022-07-31T08:48:51.334Z,27.4
2022-07-31T08:51:06.143Z,27.4
2022-07-31T08:53:22.958Z,27.2
2022-07-31T08:56:03.078Z,27.3
2022-07-31T08:58:17.773Z,27.4
2022-07-31T09:00:32.718Z,27.2
2022-07-31T09:02:47.612Z,27.1
2022-07-31T09:05:01.752Z,26.8
2022-07-31T09:07:17.391Z,27.3
2022-07-31T09:09:41.398Z,27
2022-07-31T09:11:54.134Z,27.2
2022-07-31T09:14:08.383Z,27.3
2022-07-31T09:16:24.329Z,27.1
2022-07-31T09:18:38.686Z,27.2
2022-07-31T09:21:25.586Z,26.8
2022-07-31T09:23:40.340Z,27.3
2022-07-31T09:25:55.299Z,27.3
2022-07-31T09:28:10.089Z,27.3
2022-07-31T09:30:25.080Z,26.9
2022-07-31T09:32:43.648Z,27.3
2022-07-31T09:34:58.522Z,27.3
2022-07-31T09:37:13.322Z,27.1
2022-07-31T09:39:28.170Z,27.1
2022-07-31T09:42:20.182Z,27.3
2022-07-31T09:44:38.525Z,27.4
2022-07-31T09:46:52.783Z,27.4
2022-07-31T09:49:08.208Z,27.4
2022-07-31T09:51:23.484Z,27.4
2022-07-31T09:53:41.730Z,27.3
2022-07-31T09:55:52.647Z,27.4
2022-07-31T09:58:07.646Z,27.5
2022-07-31T10:00:22.433Z,27.4
2022-07-31T10:02:37.315Z,27.6
2022-07-31T10:04:52.142Z,27.7
2022-07-31T10:07:07.228Z,27.8
2022-07-31T10:09:21.840Z,27.6
2022-07-31T10:11:36.965Z,27.4
2022-07-31T10:13:51.508Z,27.2
2022-07-31T10:16:06.288Z,27.7
2022-07-31T10:18:21.195Z,27.6
2022-07-31T10:20:38.192Z,27.6
2022-07-31T10:22:53.225Z,27.6
2022-07-31T10:25:07.970Z,27.3
2022-07-31T10:27:44.249Z,27.4
2022-07-31T10:34:44.965Z,27.7
2022-07-31T10:36:59.800Z,27.6
2022-07-31T10:41:29.488Z,28.1
2022-07-31T10:43:44.378Z,28.1
2022-07-31T10:45:59.257Z,28.1
2022-07-31T10:48:14.476Z,27.7
2022-07-31T10:50:29.310Z,28.2
2022-07-31T10:52:44.347Z,27.9
2022-07-31T10:55:08.909Z,28
2022-07-31T10:57:23.808Z,28.6
2022-07-31T10:59:46.861Z,28.1
2022-07-31T11:02:01.605Z,27.9
2022-07-31T11:04:16.359Z,27.9
2022-07-31T11:09:04.196Z,27.9
2022-07-31T11:11:26.144Z,27.8
2022-07-31T11:13:37.379Z,27.8
2022-07-31T11:15:52.221Z,27.7
2022-07-31T11:18:59.212Z,28
2022-07-31T11:21:36.274Z,28.2
2022-07-31T11:23:56.229Z,28
2022-07-31T11:26:06.018Z,28.2
2022-07-31T11:28:28.578Z,28.2
2022-07-31T11:31:30.341Z,28.2
2022-07-31T11:33:45.408Z,27.9
2022-07-31T11:36:00.016Z,27.9
2022-07-31T11:38:29.826Z,28.1
2022-07-31T11:40:44.696Z,28.1
2022-07-31T11:43:26.748Z,28.3
2022-07-31T11:45:33.388Z,28
2022-07-31T11:48:30.302Z,28.2
2022-07-31T11:50:51.413Z,28
2022-07-31T11:53:09.009Z,28.2
2022-07-31T11:55:23.888Z,28.1
2022-07-31T11:57:54.412Z,28.3
2022-07-31T12:00:43.952Z,28.1
2022-07-31T12:02:59.005Z,28.1
2022-07-31T12:05:13.639Z,28.1
2022-07-31T12:07:28.495Z,28.1
2022-07-31T12:10:18.584Z,28.2
2022-07-31T12:12:33.477Z,28.1
2022-07-31T12:14:48.283Z,28
2022-07-31T12:17:03.350Z,28.2
2022-07-31T12:19:17.945Z,28.3
2022-07-31T12:21:36.391Z,28.2
2022-07-31T12:23:58.456Z,28.1
2022-07-31T12:26:13.377Z,28.2
2022-07-31T12:28:28.189Z,28.3
2022-07-31T12:30:42.970Z,28.2
2022-07-31T12:32:57.959Z,28.2
2022-07-31T12:35:13.201Z,28.2
2022-07-31T12:37:44.241Z,28.4
2022-07-31T12:40:23.688Z,28.4
2022-07-31T12:42:41.721Z,28.8
2022-07-31T12:44:53.400Z,28.7
2022-07-31T12:47:08.320Z,28.2
2022-07-31T12:49:23.214Z,28.1
2022-07-31T12:51:48.703Z,28.2
2022-07-31T12:54:04.097Z,28.5
2022-07-31T12:56:18.877Z,28.6
2022-07-31T12:58:33.717Z,28.8
2022-07-31T13:00:48.977Z,29
2022-07-31T13:03:03.412Z,28.9
2022-07-31T13:05:18.349Z,28.9
2022-07-31T13:07:33.244Z,28.6
2022-07-31T13:10:15.383Z,28.5
2022-07-31T13:12:26.546Z,28.5
2022-07-31T13:14:41.359Z,28.4
2022-07-31T13:16:56.258Z,28.5
2022-07-31T13:19:11.232Z,28.2
2022-07-31T13:21:26.124Z,28.3
2022-07-31T13:23:41.105Z,28.4
2022-07-31T13:25:56.056Z,28.8
2022-07-31T13:28:11.088Z,28.9
2022-07-31T13:30:26.108Z,28.4
2022-07-31T13:32:40.786Z,28.8
2022-07-31T13:35:20.053Z,28.8
2022-07-31T13:37:29.941Z,28.6
2022-07-31T13:39:44.735Z,28.4
2022-07-31T13:41:59.643Z,28.1
2022-07-31T13:44:17.331Z,28.3
2022-07-31T13:46:32.122Z,28.9
2022-07-31T13:48:54.598Z,28.7
2022-07-31T13:51:09.391Z,28.6
2022-07-31T13:53:24.279Z,28.4
2022-07-31T13:55:39.108Z,28.2
2022-07-31T13:58:04.630Z,28.5
2022-07-31T14:00:19.456Z,28.4
2022-07-31T14:02:51.319Z,28.5
2022-07-31T14:05:05.993Z,28.9
2022-07-31T14:07:20.965Z,28.8
2022-07-31T14:10:06.854Z,28.8
2022-07-31T14:12:21.749Z,28.8
2022-07-31T14:14:36.624Z,28.7
2022-07-31T14:16:51.650Z,28.6
2022-07-31T14:19:06.186Z,28.6
2022-07-31T14:21:21.165Z,28.7
2022-07-31T14:23:40.317Z,28.8
2022-07-31T14:25:50.991Z,28.8
2022-07-31T14:28:05.836Z,28.7
2022-07-31T14:30:20.603Z,28.8
2022-07-31T14:32:35.639Z,28.8
2022-07-31T14:34:50.354Z,28.7
2022-07-31T14:37:05.586Z,28.9
2022-07-31T14:39:20.160Z,28.9
2022-07-31T14:41:34.917Z,28.9
2022-07-31T14:43:49.742Z,29
2022-07-31T14:46:08.522Z,28.7
2022-07-31T14:48:23.226Z,28.8
2022-07-31T14:50:58.031Z,28.9
2022-07-31T14:53:13.020Z,28.9
2022-07-31T14:55:27.767Z,28.8
2022-07-31T14:58:02.064Z,28.6
2022-07-31T15:00:16.912Z,28.7
2022-07-31T15:02:31.338Z,28.6
2022-07-31T15:04:46.695Z,28.8
2022-07-31T15:09:07.012Z,28.7
2022-07-31T15:11:21.889Z,28.5
2022-07-31T15:14:00.097Z,28.6
2022-07-31T15:16:15.031Z,28.8
2022-07-31T15:18:29.787Z,28.9
2022-07-31T15:20:44.491Z,28.6
2022-07-31T15:23:18.380Z,28.6
2022-07-31T15:25:33.796Z,28.3
2022-07-31T15:27:48.664Z,28.8
2022-07-31T15:30:24.361Z,28.6
2022-07-31T15:32:39.259Z,28.3
2022-07-31T15:34:54.167Z,28.9
2022-07-31T15:37:08.861Z,28.6
2022-07-31T15:39:24.013Z,28.4
2022-07-31T15:41:38.784Z,28.2
2022-07-31T15:43:53.892Z,28.3
2022-07-31T15:46:08.781Z,27.9
2022-07-31T15:48:24.010Z,28.1
2022-07-31T15:50:38.746Z,28
2022-07-31T15:52:53.600Z,28.1
2022-07-31T15:55:08.724Z,28.1
2022-07-31T15:57:23.915Z,28
2022-07-31T15:59:38.690Z,27.8
2022-07-31T16:01:53.539Z,27.7
2022-07-31T16:04:22.986Z,27.7
2022-07-31T16:10:21.064Z,28.1
2022-07-31T16:12:52.067Z,28.2
2022-07-31T16:15:07.906Z,28.1
2022-07-31T16:17:22.124Z,27.9
2022-07-31T16:19:37.190Z,27.9
2022-07-31T16:21:51.994Z,28.1
2022-07-31T16:24:07.507Z,28
2022-07-31T16:26:21.996Z,27.8
2022-07-31T16:28:37.165Z,27.5
2022-07-31T16:31:30.413Z,27.4
2022-07-31T16:33:33.400Z,27.8
2022-07-31T16:35:48.263Z,27.3
2022-07-31T16:38:10.984Z,27.7
2022-07-31T16:40:36.645Z,27.7
2022-07-31T16:42:51.522Z,27.6
2022-07-31T16:45:36.080Z,27.6
2022-07-31T16:48:09.303Z,27.5
2022-07-31T16:50:39.200Z,27.4
2022-07-31T16:52:54.963Z,27.5
2022-07-31T16:56:02.313Z,27.5
2022-07-31T16:58:17.575Z,27.6
2022-07-31T17:00:32.369Z,27.5
2022-07-31T17:03:59.663Z,27.7
2022-07-31T17:06:05.058Z,27.6
2022-07-31T17:08:22.019Z,27.4
2022-07-31T17:10:36.813Z,27.9
2022-07-31T17:12:51.619Z,27.8
2022-07-31T17:17:21.487Z,27.6
2022-07-31T17:19:47.689Z,27.6
2022-07-31T17:24:30.294Z,27.6
2022-07-31T17:26:45.160Z,27.8
2022-07-31T17:28:59.943Z,27.6
2022-07-31T17:31:14.780Z,27.8
2022-07-31T17:33:49.507Z,27.8
2022-07-31T17:36:01.016Z,27.6
2022-07-31T17:38:15.813Z,27.6
2022-07-31T17:40:44.177Z,27.6
2022-07-31T17:42:58.640Z,27.7
2022-07-31T17:45:22.360Z,27.6
2022-07-31T17:48:39.551Z,27.4
2022-07-31T17:50:54.436Z,27.4
2022-07-31T17:53:16.429Z,27.5
2022-07-31T17:55:48.075Z,27.7
2022-07-31T17:58:02.849Z,27.4
2022-07-31T18:00:17.673Z,27.6
2022-07-31T18:02:32.561Z,27.6
2022-07-31T18:04:47.240Z,27.4
2022-07-31T18:07:02.127Z,27.5
2022-07-31T18:09:16.998Z,27.4
2022-07-31T18:11:40.938Z,27.4
2022-07-31T18:14:00.992Z,27.5
2022-07-31T18:16:14.805Z,27.5
2022-07-31T18:18:29.771Z,27
2022-07-31T18:20:44.544Z,26.8
2022-07-31T18:22:59.430Z,27.1
2022-07-31T18:25:14.233Z,27.1
2022-07-31T18:27:29.184Z,26.7
2022-07-31T18:29:54.995Z,27.1
2022-07-31T18:32:07.307Z,27.1
2022-07-31T18:34:21.276Z,27.1
2022-07-31T18:36:36.751Z,27.3
2022-07-31T18:38:51.748Z,27.1
2022-07-31T18:41:06.459Z,26.8
2022-07-31T18:43:21.275Z,26.9
2022-07-31T18:45:36.202Z,26.8
2022-07-31T18:47:51.154Z,26.6
2022-07-31T18:51:36.413Z,26.4
2022-07-31T18:53:51.157Z,26.6
2022-07-31T18:56:06.087Z,26.6
2022-07-31T18:58:20.987Z,26.8
2022-07-31T19:00:35.788Z,26.7
2022-07-31T19:02:50.540Z,26.8
2022-07-31T19:05:05.375Z,26.8
2022-07-31T19:07:20.324Z,26.6
2022-07-31T19:09:35.233Z,26.6
2022-07-31T19:11:50.788Z,26.7
2022-07-31T19:14:04.935Z,26.6
2022-07-31T19:16:19.631Z,26.6
2022-07-31T19:18:34.558Z,26.4
2022-07-31T19:21:43.345Z,26.4
2022-07-31T19:23:58.698Z,26.4
2022-07-31T19:26:20.472Z,26.3
2022-07-31T19:28:34.972Z,26.4
2022-07-31T19:30:50.266Z,26.4
2022-07-31T19:33:05.220Z,26.3
2022-07-31T19:35:19.941Z,26.4
2022-07-31T19:37:42.526Z,26.4
2022-07-31T19:39:57.283Z,26.4
2022-07-31T19:42:28.997Z,26.4
2022-07-31T19:44:43.866Z,26.3
2022-07-31T19:47:13.758Z,26.2
2022-07-31T19:49:28.887Z,26.4
2022-07-31T19:51:43.559Z,26.4
2022-07-31T19:53:58.354Z,26.4
2022-07-31T19:56:18.245Z,26.4
2022-07-31T19:58:28.091Z,26.4
2022-07-31T20:00:42.935Z,26.3
2022-07-31T20:02:57.881Z,26.3
2022-07-31T20:05:12.564Z,26.3
2022-07-31T20:07:30.953Z,26.3
2022-07-31T20:09:42.665Z,26.3
2022-07-31T20:11:57.289Z,26.3
2022-07-31T20:14:11.973Z,26.3
2022-07-31T20:16:38.000Z,26.3
2022-07-31T20:18:52.973Z,26.4
2022-07-31T20:21:35.107Z,26.2
2022-07-31T20:23:49.040Z,26.3
2022-07-31T20:26:07.286Z,26.1
2022-07-31T20:28:22.101Z,26.5
2022-07-31T20:30:37.173Z,26.1
2022-07-31T20:32:51.890Z,26.2
2022-07-31T20:35:06.862Z,26
2022-07-31T20:37:49.606Z,26.1
2022-07-31T20:40:04.676Z,26.1
2022-07-31T20:42:19.340Z,26.1
2022-07-31T20:44:34.223Z,26
2022-07-31T20:46:49.119Z,26.1
2022-07-31T20:49:03.977Z,26.1
2022-07-31T20:51:21.798Z,26
2022-07-31T20:53:36.624Z,26.1
2022-07-31T20:55:51.668Z,26.1
2022-07-31T20:58:06.528Z,25.9
2022-07-31T21:00:21.326Z,26
2022-07-31T21:02:36.124Z,26.1
2022-07-31T21:04:51.043Z,26
2022-07-31T21:07:05.969Z,26.1
2022-07-31T21:09:20.825Z,26
2022-07-31T21:11:35.864Z,25.9
2022-07-31T21:13:50.480Z,25.8
2022-07-31T21:16:28.365Z,25.9
2022-07-31T21:18:43.716Z,25.9
2022-07-31T21:21:07.501Z,25.8
2022-07-31T21:23:22.614Z,25.7
2022-07-31T21:25:37.357Z,25.9
2022-07-31T21:27:52.060Z,25.8
2022-07-31T21:30:07.023Z,25.7
2022-07-31T21:32:22.000Z,25.7
2022-07-31T21:34:36.745Z,25.6
2022-07-31T21:36:54.201Z,25.6
2022-07-31T21:39:09.223Z,25.6
2022-07-31T21:41:23.905Z,25.5
2022-07-31T21:43:54.600Z,25.5
2022-07-31T21:46:08.382Z,25.4
2022-07-31T21:48:25.533Z,25.5
2022-07-31T21:50:40.257Z,25.5
2022-07-31T21:52:54.846Z,25.4
2022-07-31T21:55:09.745Z,25.6
2022-07-31T21:57:24.793Z,25.3
2022-07-31T21:59:47.420Z,25.3
2022-07-31T22:02:02.417Z,25.3
2022-07-31T22:04:16.866Z,25.3
2022-07-31T22:06:31.800Z,25.4
2022-07-31T22:08:46.625Z,25.2
2022-07-31T22:11:01.454Z,25.4
2022-07-31T22:13:18.329Z,25.1
2022-07-31T22:15:50.332Z,25.3
2022-07-31T22:18:01.174Z,25.3
2022-07-31T22:20:16.149Z,25.1
2022-07-31T22:22:31.174Z,25.3
2022-07-31T22:24:45.856Z,25.1
2022-07-31T22:27:00.693Z,25.2
2022-07-31T22:29:18.368Z,25.2
2022-07-31T22:31:30.360Z,25.1
2022-07-31T22:33:45.151Z,25.1
2022-07-31T22:36:09.480Z,25.1
2022-07-31T22:38:24.612Z,25
2022-07-31T22:40:39.771Z,24.9
2022-07-31T22:42:56.385Z,25.1
2022-07-31T22:46:00.360Z,24.9
2022-07-31T22:48:15.231Z,25.1
2022-07-31T22:50:30.088Z,25.1
2022-07-31T22:52:44.974Z,25.1
2022-07-31T22:54:59.731Z,25.3
2022-07-31T22:57:14.731Z,25.2
2022-07-31T22:59:29.602Z,25.3
2022-07-31T23:01:44.342Z,25
2022-07-31T23:03:59.131Z,25
2022-07-31T23:06:49.998Z,25.1
2022-07-31T23:09:04.918Z,24.9
2022-07-31T23:11:19.672Z,25
2022-07-31T23:13:34.508Z,24.9
2022-07-31T23:15:49.319Z,24.9
2022-07-31T23:18:04.179Z,24.9
2022-07-31T23:20:18.985Z,25
2022-07-31T23:22:34.349Z,24.9
2022-07-31T23:24:48.814Z,24.9
2022-07-31T23:27:03.620Z,24.9
2022-07-31T23:29:18.513Z,25.3
2022-07-31T23:31:33.509Z,25.1
2022-07-31T23:33:48.074Z,24.9
2022-07-31T23:36:03.048Z,24.9
2022-07-31T23:38:17.818Z,24.8
2022-07-31T23:40:32.713Z,24.8
2022-07-31T23:42:48.790Z,24.8
2022-07-31T23:45:02.427Z,25.1
2022-07-31T23:47:17.292Z,24.7
2022-07-31T23:49:32.054Z,24.8
2022-07-31T23:51:46.931Z,24.8
2022-07-31T23:54:01.775Z,24.8
2022-07-31T23:56:18.477Z,24.7
2022-07-31T23:58:31.501Z,24.7
